sensor_id;sensor_type;location;lat;lon;timestamp;pressure;altitude;pressure_sealevel;temperature;humidity
16664;BME280;8445;51.270;9.434;2023-06-22T00:02:14;99744.69;;;22.56;57.50
16664;BME280;8445;51.270;9.434;2023-06-22T00:04:39;99749.44;;;22.54;56.95
16664;BME280;8445;51.270;9.434;2023-06-22T00:07:05;99740.97;;;22.57;57.22
16664;BME280;8445;51.270;9.434;2023-06-22T00:09:31;99752.03;;;22.62;55.94
16664;BME280;8445;51.270;9.434;2023-06-22T00:11:57;99736.59;;;22.56;57.59
16664;BME280;8445;51.270;9.434;2023-06-22T00:14:23;99732.06;;;22.57;58.27
16664;BME280;8445;51.270;9.434;2023-06-22T00:16:48;99738.84;;;22.68;59.13
16664;BME280;8445;51.270;9.434;2023-06-22T00:19:15;99732.59;;;22.67;57.55
16664;BME280;8445;51.270;9.434;2023-06-22T00:21:40;99738.94;;;22.59;56.93
16664;BME280;8445;51.270;9.434;2023-06-22T00:24:07;99738.19;;;22.35;57.70
16664;BME280;8445;51.270;9.434;2023-06-22T00:26:33;99740.09;;;22.42;58.40
16664;BME280;8445;51.270;9.434;2023-06-22T00:28:59;99734.47;;;22.36;57.91
16664;BME280;8445;51.270;9.434;2023-06-22T00:31:25;99728.97;;;22.45;57.86
16664;BME280;8445;51.270;9.434;2023-06-22T00:33:53;99719.22;;;22.44;58.47
16664;BME280;8445;51.270;9.434;2023-06-22T00:36:19;99721.53;;;22.32;57.86
16664;BME280;8445;51.270;9.434;2023-06-22T00:38:44;99713.72;;;22.37;58.66
16664;BME280;8445;51.270;9.434;2023-06-22T00:41:10;99715.97;;;22.33;58.68
16664;BME280;8445;51.270;9.434;2023-06-22T00:43:35;99717.53;;;22.28;58.87
16664;BME280;8445;51.270;9.434;2023-06-22T00:46:02;99699.97;;;22.17;58.46
16664;BME280;8445;51.270;9.434;2023-06-22T00:48:28;99699.03;;;22.10;57.77
16664;BME280;8445;51.270;9.434;2023-06-22T00:50:55;99708.41;;;22.14;58.66
16664;BME280;8445;51.270;9.434;2023-06-22T00:53:22;99704.84;;;21.83;58.56
16664;BME280;8445;51.270;9.434;2023-06-22T00:55:48;99699.59;;;22.05;58.48
16664;BME280;8445;51.270;9.434;2023-06-22T00:58:17;99693.06;;;21.99;59.24
16664;BME280;8445;51.270;9.434;2023-06-22T01:00:47;99680.78;;;21.82;58.75
16664;BME280;8445;51.270;9.434;2023-06-22T01:03:13;99679.31;;;21.94;59.16
16664;BME280;8445;51.270;9.434;2023-06-22T01:05:39;99671.66;;;21.83;59.12
16664;BME280;8445;51.270;9.434;2023-06-22T01:10:46;99665.56;;;21.89;63.51
16664;BME280;8445;51.270;9.434;2023-06-22T01:16:19;99649.41;;;21.89;61.04
16664;BME280;8445;51.270;9.434;2023-06-22T01:18:47;99650.13;;;21.83;60.53
16664;BME280;8445;51.270;9.434;2023-06-22T01:21:18;99655.00;;;21.87;60.30
16664;BME280;8445;51.270;9.434;2023-06-22T01:24:07;99659.19;;;22.05;69.14
16664;BME280;8445;51.270;9.434;2023-06-22T01:26:41;99661.94;;;21.82;62.63
16664;BME280;8445;51.270;9.434;2023-06-22T01:29:08;99652.47;;;21.86;59.62
16664;BME280;8445;51.270;9.434;2023-06-22T01:31:38;99650.91;;;21.76;59.26
16664;BME280;8445;51.270;9.434;2023-06-22T01:34:06;99650.78;;;21.70;60.56
16664;BME280;8445;51.270;9.434;2023-06-22T01:36:32;99657.19;;;21.84;58.64
16664;BME280;8445;51.270;9.434;2023-06-22T01:38:58;99656.09;;;21.93;60.16
16664;BME280;8445;51.270;9.434;2023-06-22T01:41:28;99664.38;;;21.91;61.26
16664;BME280;8445;51.270;9.434;2023-06-22T01:43:55;99656.66;;;22.03;58.91
16664;BME280;8445;51.270;9.434;2023-06-22T01:46:21;99663.06;;;22.02;59.40
16664;BME280;8445;51.270;9.434;2023-06-22T01:48:51;99676.25;;;22.12;58.69
16664;BME280;8445;51.270;9.434;2023-06-22T01:51:17;99680.53;;;22.21;59.13
16664;BME280;8445;51.270;9.434;2023-06-22T01:53:43;99687.22;;;22.26;58.44
16664;BME280;8445;51.270;9.434;2023-06-22T01:56:08;99694.84;;;22.37;58.84
16664;BME280;8445;51.270;9.434;2023-06-22T01:58:36;99702.22;;;22.28;59.62
16664;BME280;8445;51.270;9.434;2023-06-22T02:01:11;99700.34;;;22.44;61.70
16664;BME280;8445;51.270;9.434;2023-06-22T02:03:43;99712.44;;;22.48;61.96
16664;BME280;8445;51.270;9.434;2023-06-22T02:06:21;99719.88;;;22.46;66.21
16664;BME280;8445;51.270;9.434;2023-06-22T02:08:58;99716.06;;;22.55;66.65
16664;BME280;8445;51.270;9.434;2023-06-22T02:11:26;99730.84;;;22.59;60.55
16664;BME280;8445;51.270;9.434;2023-06-22T02:13:55;99728.72;;;22.55;60.65
16664;BME280;8445;51.270;9.434;2023-06-22T02:16:23;99734.56;;;22.58;58.70
16664;BME280;8445;51.270;9.434;2023-06-22T02:18:50;99749.06;;;22.57;59.48
16664;BME280;8445;51.270;9.434;2023-06-22T02:21:17;99748.69;;;22.60;59.55
16664;BME280;8445;51.270;9.434;2023-06-22T02:23:43;99754.28;;;22.59;59.56
16664;BME280;8445;51.270;9.434;2023-06-22T02:26:09;99757.06;;;22.65;59.11
16664;BME280;8445;51.270;9.434;2023-06-22T02:28:35;99756.22;;;22.50;60.84
16664;BME280;8445;51.270;9.434;2023-06-22T02:31:00;99754.59;;;22.41;60.47
16664;BME280;8445;51.270;9.434;2023-06-22T02:33:26;99753.81;;;22.55;59.51
16664;BME280;8445;51.270;9.434;2023-06-22T02:35:52;99756.34;;;22.57;60.53
16664;BME280;8445;51.270;9.434;2023-06-22T02:38:21;99749.63;;;22.68;60.33
16664;BME280;8445;51.270;9.434;2023-06-22T02:40:46;99740.88;;;22.65;60.82
16664;BME280;8445;51.270;9.434;2023-06-22T02:43:12;99737.09;;;22.60;60.92
16664;BME280;8445;51.270;9.434;2023-06-22T02:45:38;99747.56;;;22.70;62.60
16664;BME280;8445;51.270;9.434;2023-06-22T02:48:04;99753.41;;;22.73;61.42
16664;BME280;8445;51.270;9.434;2023-06-22T02:50:30;99749.81;;;22.81;62.37
16664;BME280;8445;51.270;9.434;2023-06-22T02:52:56;99753.53;;;22.80;61.31
16664;BME280;8445;51.270;9.434;2023-06-22T02:55:23;99741.06;;;22.79;61.04
16664;BME280;8445;51.270;9.434;2023-06-22T02:57:54;99751.84;;;22.79;62.01
16664;BME280;8445;51.270;9.434;2023-06-22T03:00:20;99743.56;;;22.80;60.63
16664;BME280;8445;51.270;9.434;2023-06-22T03:02:48;99744.13;;;22.76;61.48
16664;BME280;8445;51.270;9.434;2023-06-22T03:05:15;99744.69;;;22.71;60.37
16664;BME280;8445;51.270;9.434;2023-06-22T03:07:44;99742.28;;;22.61;60.91
16664;BME280;8445;51.270;9.434;2023-06-22T03:10:10;99746.84;;;22.76;60.77
16664;BME280;8445;51.270;9.434;2023-06-22T03:12:41;99736.06;;;22.76;63.12
16664;BME280;8445;51.270;9.434;2023-06-22T03:15:08;99741.06;;;22.79;61.03
16664;BME280;8445;51.270;9.434;2023-06-22T03:17:35;99737.34;;;22.80;60.18
16664;BME280;8445;51.270;9.434;2023-06-22T03:20:04;99733.03;;;22.86;60.70
16664;BME280;8445;51.270;9.434;2023-06-22T03:22:41;99729.16;;;22.88;60.46
16664;BME280;8445;51.270;9.434;2023-06-22T03:25:08;99726.84;;;22.85;60.69
16664;BME280;8445;51.270;9.434;2023-06-22T03:27:41;99716.69;;;22.87;60.71
16664;BME280;8445;51.270;9.434;2023-06-22T03:30:09;99712.97;;;22.88;60.87
16664;BME280;8445;51.270;9.434;2023-06-22T03:32:36;99713.34;;;22.85;59.91
16664;BME280;8445;51.270;9.434;2023-06-22T03:35:05;99713.13;;;22.87;60.46
16664;BME280;8445;51.270;9.434;2023-06-22T03:37:34;99708.66;;;22.94;60.14
16664;BME280;8445;51.270;9.434;2023-06-22T03:39:59;99711.50;;;22.71;60.71
16664;BME280;8445;51.270;9.434;2023-06-22T03:42:27;99704.63;;;22.53;64.60
16664;BME280;8445;51.270;9.434;2023-06-22T03:44:52;99702.88;;;22.60;61.17
16664;BME280;8445;51.270;9.434;2023-06-22T03:47:18;99704.81;;;22.67;60.96
16664;BME280;8445;51.270;9.434;2023-06-22T03:49:43;99708.09;;;22.62;60.44
16664;BME280;8445;51.270;9.434;2023-06-22T03:52:09;99706.94;;;22.71;60.75
16664;BME280;8445;51.270;9.434;2023-06-22T03:54:36;99693.16;;;22.81;61.23
16664;BME280;8445;51.270;9.434;2023-06-22T03:57:01;99691.34;;;22.52;61.83
16664;BME280;8445;51.270;9.434;2023-06-22T03:59:27;99696.66;;;22.60;62.85
16664;BME280;8445;51.270;9.434;2023-06-22T04:01:53;99687.22;;;22.71;62.16
16664;BME280;8445;51.270;9.434;2023-06-22T04:04:18;99681.13;;;22.62;63.87
16664;BME280;8445;51.270;9.434;2023-06-22T04:06:44;99674.22;;;22.59;62.54
16664;BME280;8445;51.270;9.434;2023-06-22T04:09:09;99678.00;;;22.80;62.82
16664;BME280;8445;51.270;9.434;2023-06-22T04:11:35;99685.47;;;22.78;61.77
16664;BME280;8445;51.270;9.434;2023-06-22T04:14:00;99689.19;;;22.77;62.87
16664;BME280;8445;51.270;9.434;2023-06-22T04:16:26;99687.34;;;22.62;62.98
16664;BME280;8445;51.270;9.434;2023-06-22T04:18:52;99689.06;;;22.85;62.11
16664;BME280;8445;51.270;9.434;2023-06-22T04:21:17;99688.38;;;22.98;62.22
16664;BME280;8445;51.270;9.434;2023-06-22T04:23:45;99700.91;;;23.06;62.29
16664;BME280;8445;51.270;9.434;2023-06-22T04:26:12;99698.22;;;23.06;61.94
16664;BME280;8445;51.270;9.434;2023-06-22T04:28:37;99691.59;;;23.08;62.61
16664;BME280;8445;51.270;9.434;2023-06-22T04:31:03;99695.41;;;23.14;61.59
16664;BME280;8445;51.270;9.434;2023-06-22T04:33:29;99680.50;;;23.18;62.21
16664;BME280;8445;51.270;9.434;2023-06-22T04:35:58;99684.88;;;23.19;62.45
16664;BME280;8445;51.270;9.434;2023-06-22T04:38:24;99684.78;;;23.28;62.21
16664;BME280;8445;51.270;9.434;2023-06-22T04:40:50;99687.72;;;23.33;61.75
16664;BME280;8445;51.270;9.434;2023-06-22T04:43:16;99686.06;;;23.32;61.17
16664;BME280;8445;51.270;9.434;2023-06-22T04:45:43;99690.59;;;23.31;61.18
16664;BME280;8445;51.270;9.434;2023-06-22T04:48:08;99696.22;;;23.30;61.58
16664;BME280;8445;51.270;9.434;2023-06-22T04:50:36;99682.06;;;23.28;60.91
16664;BME280;8445;51.270;9.434;2023-06-22T04:53:04;99676.88;;;23.11;62.13
16664;BME280;8445;51.270;9.434;2023-06-22T04:55:31;99684.72;;;23.06;62.60
16664;BME280;8445;51.270;9.434;2023-06-22T04:57:57;99682.09;;;23.13;62.24
16664;BME280;8445;51.270;9.434;2023-06-22T05:00:30;99676.75;;;22.98;63.01
16664;BME280;8445;51.270;9.434;2023-06-22T05:02:55;99679.16;;;22.71;65.85
16664;BME280;8445;51.270;9.434;2023-06-22T05:05:23;99682.69;;;22.56;69.58
16664;BME280;8445;51.270;9.434;2023-06-22T05:07:50;99681.16;;;22.84;67.79
16664;BME280;8445;51.270;9.434;2023-06-22T05:10:18;99679.78;;;23.09;66.03
16664;BME280;8445;51.270;9.434;2023-06-22T05:12:45;99677.56;;;23.35;63.98
16664;BME280;8445;51.270;9.434;2023-06-22T05:15:11;99680.41;;;23.48;64.16
16664;BME280;8445;51.270;9.434;2023-06-22T05:17:39;99676.81;;;23.41;65.82
16664;BME280;8445;51.270;9.434;2023-06-22T05:20:17;99673.25;;;23.91;66.76
16664;BME280;8445;51.270;9.434;2023-06-22T05:22:43;99677.75;;;24.05;63.56
16664;BME280;8445;51.270;9.434;2023-06-22T05:25:10;99674.47;;;24.17;63.58
16664;BME280;8445;51.270;9.434;2023-06-22T05:27:36;99677.91;;;24.81;61.96
16664;BME280;8445;51.270;9.434;2023-06-22T05:30:09;99670.94;;;25.00;62.45
16664;BME280;8445;51.270;9.434;2023-06-22T05:32:35;99671.78;;;25.14;61.44
16664;BME280;8445;51.270;9.434;2023-06-22T05:35:02;99676.56;;;25.12;61.82
16664;BME280;8445;51.270;9.434;2023-06-22T05:37:28;99675.81;;;25.52;60.37
16664;BME280;8445;51.270;9.434;2023-06-22T05:39:54;99680.59;;;25.83;59.72
16664;BME280;8445;51.270;9.434;2023-06-22T05:42:21;99673.03;;;26.26;58.92
16664;BME280;8445;51.270;9.434;2023-06-22T05:44:46;99674.72;;;26.27;59.09
16664;BME280;8445;51.270;9.434;2023-06-22T05:47:12;99670.16;;;25.73;60.06
16664;BME280;8445;51.270;9.434;2023-06-22T05:49:38;99670.19;;;25.67;60.60
16664;BME280;8445;51.270;9.434;2023-06-22T05:52:04;99669.75;;;25.83;60.04
16664;BME280;8445;51.270;9.434;2023-06-22T05:54:30;99666.97;;;25.09;62.23
16664;BME280;8445;51.270;9.434;2023-06-22T05:56:55;99671.53;;;24.47;64.27
16664;BME280;8445;51.270;9.434;2023-06-22T05:59:21;99679.13;;;24.71;63.70
16664;BME280;8445;51.270;9.434;2023-06-22T06:01:47;99683.59;;;24.93;62.86
16664;BME280;8445;51.270;9.434;2023-06-22T06:04:18;99689.88;;;25.07;61.75
16664;BME280;8445;51.270;9.434;2023-06-22T06:06:44;99692.59;;;25.13;61.91
16664;BME280;8445;51.270;9.434;2023-06-22T06:09:13;99699.28;;;25.31;61.49
16664;BME280;8445;51.270;9.434;2023-06-22T06:11:39;99686.84;;;25.64;60.74
16664;BME280;8445;51.270;9.434;2023-06-22T06:14:04;99690.38;;;26.18;59.22
16664;BME280;8445;51.270;9.434;2023-06-22T06:16:30;99689.13;;;25.53;61.12
16664;BME280;8445;51.270;9.434;2023-06-22T06:18:56;99695.19;;;25.82;60.25
16664;BME280;8445;51.270;9.434;2023-06-22T06:21:23;99691.59;;;25.41;61.86
16664;BME280;8445;51.270;9.434;2023-06-22T06:23:49;99682.28;;;25.84;61.67
16664;BME280;8445;51.270;9.434;2023-06-22T06:26:15;99689.28;;;26.39;60.41
16664;BME280;8445;51.270;9.434;2023-06-22T06:28:45;99689.31;;;26.26;61.07
16664;BME280;8445;51.270;9.434;2023-06-22T06:31:11;99687.22;;;26.28;60.36
16664;BME280;8445;51.270;9.434;2023-06-22T06:33:37;99681.78;;;26.21;60.61
16664;BME280;8445;51.270;9.434;2023-06-22T06:36:03;99687.25;;;26.73;60.04
16664;BME280;8445;51.270;9.434;2023-06-22T06:38:31;99683.25;;;26.10;58.82
16664;BME280;8445;51.270;9.434;2023-06-22T06:40:58;99684.03;;;26.51;59.80
16664;BME280;8445;51.270;9.434;2023-06-22T06:43:23;99678.31;;;26.73;58.94
16664;BME280;8445;51.270;9.434;2023-06-22T06:45:50;99677.03;;;26.75;58.60
16664;BME280;8445;51.270;9.434;2023-06-22T06:48:15;99678.69;;;26.83;58.72
16664;BME280;8445;51.270;9.434;2023-06-22T06:50:41;99679.22;;;27.05;58.02
16664;BME280;8445;51.270;9.434;2023-06-22T06:53:09;99669.91;;;26.88;58.70
16664;BME280;8445;51.270;9.434;2023-06-22T06:55:35;99676.31;;;27.32;58.72
16664;BME280;8445;51.270;9.434;2023-06-22T06:58:01;99667.41;;;27.50;58.18
16664;BME280;8445;51.270;9.434;2023-06-22T07:00:28;99665.81;;;27.68;56.79
16664;BME280;8445;51.270;9.434;2023-06-22T07:02:53;99665.72;;;28.25;57.90
16664;BME280;8445;51.270;9.434;2023-06-22T07:05:19;99655.25;;;28.78;56.39
16664;BME280;8445;51.270;9.434;2023-06-22T07:07:44;99662.34;;;29.64;56.02
16664;BME280;8445;51.270;9.434;2023-06-22T07:10:10;99662.78;;;29.37;55.66
16664;BME280;8445;51.270;9.434;2023-06-22T07:12:36;99659.59;;;29.40;56.41
16664;BME280;8445;51.270;9.434;2023-06-22T07:15:09;99653.00;;;29.72;55.71
16664;BME280;8445;51.270;9.434;2023-06-22T07:17:35;99657.84;;;29.82;54.93
16664;BME280;8445;51.270;9.434;2023-06-22T07:20:02;99653.78;;;29.06;54.08
16664;BME280;8445;51.270;9.434;2023-06-22T07:22:32;99651.41;;;30.36;54.49
16664;BME280;8445;51.270;9.434;2023-06-22T07:24:58;99657.09;;;29.08;55.42
16664;BME280;8445;51.270;9.434;2023-06-22T07:27:23;99659.72;;;29.15;55.16
16664;BME280;8445;51.270;9.434;2023-06-22T07:29:50;99665.81;;;28.49;52.52
16664;BME280;8445;51.270;9.434;2023-06-22T07:32:15;99655.22;;;29.09;54.52
16664;BME280;8445;51.270;9.434;2023-06-22T07:34:41;99656.03;;;29.09;54.61
16664;BME280;8445;51.270;9.434;2023-06-22T07:37:06;99651.34;;;28.18;55.41
16664;BME280;8445;51.270;9.434;2023-06-22T07:39:32;99661.25;;;27.87;56.18
16664;BME280;8445;51.270;9.434;2023-06-22T07:41:57;99658.06;;;27.90;56.24
16664;BME280;8445;51.270;9.434;2023-06-22T07:44:23;99653.03;;;27.69;56.67
16664;BME280;8445;51.270;9.434;2023-06-22T07:46:49;99660.06;;;28.02;55.71
16664;BME280;8445;51.270;9.434;2023-06-22T07:49:14;99662.00;;;27.94;55.29
16664;BME280;8445;51.270;9.434;2023-06-22T07:51:40;99658.09;;;28.09;54.52
16664;BME280;8445;51.270;9.434;2023-06-22T07:54:05;99662.28;;;27.86;55.04
16664;BME280;8445;51.270;9.434;2023-06-22T07:56:31;99651.69;;;27.27;56.37
16664;BME280;8445;51.270;9.434;2023-06-22T07:58:58;99651.25;;;27.62;56.20
16664;BME280;8445;51.270;9.434;2023-06-22T08:01:24;99646.66;;;27.31;56.19
16664;BME280;8445;51.270;9.434;2023-06-22T08:03:50;99641.72;;;27.72;55.43
16664;BME280;8445;51.270;9.434;2023-06-22T08:06:16;99643.09;;;27.62;55.63
16664;BME280;8445;51.270;9.434;2023-06-22T08:08:42;99642.94;;;27.76;54.83
16664;BME280;8445;51.270;9.434;2023-06-22T08:11:08;99642.78;;;27.96;54.54
16664;BME280;8445;51.270;9.434;2023-06-22T08:13:34;99640.38;;;27.81;54.92
16664;BME280;8445;51.270;9.434;2023-06-22T08:15:59;99638.56;;;27.75;55.27
16664;BME280;8445;51.270;9.434;2023-06-22T08:18:25;99629.53;;;27.56;56.02
16664;BME280;8445;51.270;9.434;2023-06-22T08:20:50;99627.53;;;27.70;55.82
16664;BME280;8445;51.270;9.434;2023-06-22T08:23:16;99624.03;;;28.06;54.84
16664;BME280;8445;51.270;9.434;2023-06-22T08:25:42;99618.75;;;27.67;54.80
16664;BME280;8445;51.270;9.434;2023-06-22T08:28:07;99618.50;;;27.94;55.00
16664;BME280;8445;51.270;9.434;2023-06-22T08:30:33;99615.91;;;28.25;54.40
16664;BME280;8445;51.270;9.434;2023-06-22T08:32:59;99611.59;;;28.85;53.10
16664;BME280;8445;51.270;9.434;2023-06-22T08:35:24;99608.44;;;28.20;53.99
16664;BME280;8445;51.270;9.434;2023-06-22T08:37:50;99606.28;;;29.02;51.99
16664;BME280;8445;51.270;9.434;2023-06-22T08:40:21;99621.84;;;27.96;53.40
16664;BME280;8445;51.270;9.434;2023-06-22T08:42:48;99613.31;;;28.49;52.92
16664;BME280;8445;51.270;9.434;2023-06-22T08:45:14;99601.03;;;28.58;53.52
16664;BME280;8445;51.270;9.434;2023-06-22T08:47:41;99602.53;;;29.15;51.75
16664;BME280;8445;51.270;9.434;2023-06-22T08:50:10;99598.72;;;28.43;53.49
16664;BME280;8445;51.270;9.434;2023-06-22T08:52:36;99599.03;;;28.65;53.53
16664;BME280;8445;51.270;9.434;2023-06-22T08:55:03;99601.91;;;29.43;51.44
16664;BME280;8445;51.270;9.434;2023-06-22T08:57:28;99590.50;;;29.94;51.98
16664;BME280;8445;51.270;9.434;2023-06-22T08:59:56;99587.16;;;29.33;52.20
16664;BME280;8445;51.270;9.434;2023-06-22T09:02:26;99582.63;;;29.03;52.35
16664;BME280;8445;51.270;9.434;2023-06-22T09:04:57;99574.28;;;29.40;52.21
16664;BME280;8445;51.270;9.434;2023-06-22T09:07:23;99574.41;;;29.57;51.34
16664;BME280;8445;51.270;9.434;2023-06-22T09:09:50;99568.22;;;30.67;51.56
16664;BME280;8445;51.270;9.434;2023-06-22T09:12:17;99572.16;;;30.30;52.15
16664;BME280;8445;51.270;9.434;2023-06-22T09:14:46;99568.78;;;31.15;50.53
16664;BME280;8445;51.270;9.434;2023-06-22T09:17:12;99571.56;;;31.03;50.92
16664;BME280;8445;51.270;9.434;2023-06-22T09:19:38;99577.38;;;31.41;48.90
16664;BME280;8445;51.270;9.434;2023-06-22T09:22:04;99561.28;;;32.01;50.89
16664;BME280;8445;51.270;9.434;2023-06-22T09:24:31;99566.81;;;32.29;47.72
16664;BME280;8445;51.270;9.434;2023-06-22T09:26:56;99566.88;;;32.34;49.35
16664;BME280;8445;51.270;9.434;2023-06-22T09:29:22;99565.97;;;31.84;48.18
16664;BME280;8445;51.270;9.434;2023-06-22T09:31:47;99553.28;;;31.38;49.58
16664;BME280;8445;51.270;9.434;2023-06-22T09:34:16;99555.69;;;31.91;48.19
16664;BME280;8445;51.270;9.434;2023-06-22T09:36:46;99547.41;;;31.86;49.03
16664;BME280;8445;51.270;9.434;2023-06-22T09:39:11;99549.81;;;30.91;49.44
16664;BME280;8445;51.270;9.434;2023-06-22T09:41:37;99545.97;;;30.58;49.35
16664;BME280;8445;51.270;9.434;2023-06-22T09:44:05;99536.78;;;30.36;50.37
16664;BME280;8445;51.270;9.434;2023-06-22T09:46:30;99522.66;;;30.85;50.31
16664;BME280;8445;51.270;9.434;2023-06-22T09:48:56;99520.34;;;31.28;49.42
16664;BME280;8445;51.270;9.434;2023-06-22T09:51:22;99522.41;;;31.38;49.27
16664;BME280;8445;51.270;9.434;2023-06-22T09:53:49;99521.50;;;32.38;46.78
16664;BME280;8445;51.270;9.434;2023-06-22T09:56:15;99521.41;;;32.88;47.94
16664;BME280;8445;51.270;9.434;2023-06-22T09:58:45;99520.19;;;33.06;46.52
16664;BME280;8445;51.270;9.434;2023-06-22T10:01:11;99519.88;;;32.70;47.70
16664;BME280;8445;51.270;9.434;2023-06-22T10:03:37;99508.06;;;32.64;47.43
16664;BME280;8445;51.270;9.434;2023-06-22T10:06:03;99501.88;;;33.11;48.22
16664;BME280;8445;51.270;9.434;2023-06-22T10:08:29;99508.75;;;32.81;49.06
16664;BME280;8445;51.270;9.434;2023-06-22T10:10:54;99499.72;;;32.81;47.94
16664;BME280;8445;51.270;9.434;2023-06-22T10:13:20;99498.66;;;33.68;46.40
16664;BME280;8445;51.270;9.434;2023-06-22T10:15:45;99509.28;;;33.54;47.25
16664;BME280;8445;51.270;9.434;2023-06-22T10:18:17;99500.50;;;33.14;45.09
16664;BME280;8445;51.270;9.434;2023-06-22T10:20:43;99494.91;;;32.93;47.20
16664;BME280;8445;51.270;9.434;2023-06-22T10:23:09;99496.94;;;32.76;47.87
16664;BME280;8445;51.270;9.434;2023-06-22T10:25:34;99483.09;;;33.31;46.75
16664;BME280;8445;51.270;9.434;2023-06-22T10:28:00;99483.31;;;32.26;47.01
16664;BME280;8445;51.270;9.434;2023-06-22T10:30:26;99477.84;;;32.26;46.52
16664;BME280;8445;51.270;9.434;2023-06-22T10:32:54;99471.03;;;32.89;46.85
16664;BME280;8445;51.270;9.434;2023-06-22T10:35:19;99468.78;;;32.53;46.64
16664;BME280;8445;51.270;9.434;2023-06-22T10:37:46;99473.69;;;32.23;46.82
16664;BME280;8445;51.270;9.434;2023-06-22T10:40:16;99457.84;;;32.26;45.51
16664;BME280;8445;51.270;9.434;2023-06-22T10:42:42;99456.25;;;32.30;46.33
16664;BME280;8445;51.270;9.434;2023-06-22T10:45:10;99449.75;;;33.44;47.26
16664;BME280;8445;51.270;9.434;2023-06-22T10:47:36;99436.84;;;33.45;45.41
16664;BME280;8445;51.270;9.434;2023-06-22T10:50:03;99446.59;;;33.83;44.14
16664;BME280;8445;51.270;9.434;2023-06-22T10:52:29;99446.59;;;33.83;44.92
16664;BME280;8445;51.270;9.434;2023-06-22T10:54:54;99445.91;;;34.92;44.00
16664;BME280;8445;51.270;9.434;2023-06-22T10:57:19;99439.38;;;35.69;42.45
16664;BME280;8445;51.270;9.434;2023-06-22T10:59:46;99431.31;;;35.12;41.79
16664;BME280;8445;51.270;9.434;2023-06-22T11:02:12;99430.94;;;35.39;43.04
16664;BME280;8445;51.270;9.434;2023-06-22T11:04:38;99423.50;;;35.40;41.99
16664;BME280;8445;51.270;9.434;2023-06-22T11:07:04;99430.41;;;35.98;41.77
16664;BME280;8445;51.270;9.434;2023-06-22T11:09:29;99411.91;;;35.58;41.91
16664;BME280;8445;51.270;9.434;2023-06-22T11:11:55;99413.63;;;35.94;40.21
16664;BME280;8445;51.270;9.434;2023-06-22T11:14:21;99407.44;;;36.53;41.39
16664;BME280;8445;51.270;9.434;2023-06-22T11:16:47;99408.94;;;36.99;40.45
16664;BME280;8445;51.270;9.434;2023-06-22T11:19:13;99406.56;;;36.87;38.79
16664;BME280;8445;51.270;9.434;2023-06-22T11:21:38;99404.84;;;36.96;39.61
16664;BME280;8445;51.270;9.434;2023-06-22T11:24:04;99408.34;;;37.26;40.27
16664;BME280;8445;51.270;9.434;2023-06-22T11:26:30;99391.31;;;36.35;40.27
16664;BME280;8445;51.270;9.434;2023-06-22T11:28:59;99383.50;;;36.13;39.62
16664;BME280;8445;51.270;9.434;2023-06-22T11:31:24;99382.38;;;36.19;40.41
16664;BME280;8445;51.270;9.434;2023-06-22T11:33:50;99375.81;;;36.10;40.94
16664;BME280;8445;51.270;9.434;2023-06-22T11:36:16;99363.63;;;36.22;36.84
16664;BME280;8445;51.270;9.434;2023-06-22T11:38:42;99366.34;;;36.27;39.68
16664;BME280;8445;51.270;9.434;2023-06-22T11:41:09;99357.63;;;36.49;39.30
16664;BME280;8445;51.270;9.434;2023-06-22T11:43:35;99361.69;;;35.82;40.11
16664;BME280;8445;51.270;9.434;2023-06-22T11:46:05;99355.06;;;36.23;38.35
16664;BME280;8445;51.270;9.434;2023-06-22T11:48:31;99344.94;;;36.77;38.54
16664;BME280;8445;51.270;9.434;2023-06-22T11:50:56;99346.25;;;36.56;38.46
16664;BME280;8445;51.270;9.434;2023-06-22T11:53:24;99338.63;;;37.01;36.82
16664;BME280;8445;51.270;9.434;2023-06-22T11:55:50;99332.66;;;37.76;36.37
16664;BME280;8445;51.270;9.434;2023-06-22T11:58:16;99323.31;;;38.10;37.66
16664;BME280;8445;51.270;9.434;2023-06-22T12:00:41;99328.66;;;38.81;36.93
16664;BME280;8445;51.270;9.434;2023-06-22T12:03:07;99320.44;;;38.48;36.71
16664;BME280;8445;51.270;9.434;2023-06-22T12:05:33;99305.91;;;39.12;37.09
16664;BME280;8445;51.270;9.434;2023-06-22T12:07:58;99298.44;;;38.99;35.73
16664;BME280;8445;51.270;9.434;2023-06-22T12:10:25;99306.03;;;38.51;35.75
16664;BME280;8445;51.270;9.434;2023-06-22T12:12:51;99300.31;;;38.29;36.28
16664;BME280;8445;51.270;9.434;2023-06-22T12:15:17;99297.53;;;38.48;35.26
16664;BME280;8445;51.270;9.434;2023-06-22T12:17:42;99298.13;;;38.73;36.41
16664;BME280;8445;51.270;9.434;2023-06-22T12:20:08;99300.13;;;38.39;35.54
16664;BME280;8445;51.270;9.434;2023-06-22T12:22:34;99308.19;;;38.82;35.45
16664;BME280;8445;51.270;9.434;2023-06-22T12:25:00;99298.13;;;39.14;35.61
16664;BME280;8445;51.270;9.434;2023-06-22T12:27:26;99298.09;;;39.42;33.36
16664;BME280;8445;51.270;9.434;2023-06-22T12:29:52;99288.88;;;39.93;34.18
16664;BME280;8445;51.270;9.434;2023-06-22T12:32:18;99286.75;;;40.21;33.47
16664;BME280;8445;51.270;9.434;2023-06-22T12:34:44;99281.78;;;39.78;34.52
16664;BME280;8445;51.270;9.434;2023-06-22T12:37:10;99279.91;;;40.19;34.46
16664;BME280;8445;51.270;9.434;2023-06-22T12:39:36;99279.25;;;40.85;32.30
16664;BME280;8445;51.270;9.434;2023-06-22T12:42:01;99274.00;;;40.11;34.13
16664;BME280;8445;51.270;9.434;2023-06-22T12:44:27;99273.94;;;39.34;35.15
16664;BME280;8445;51.270;9.434;2023-06-22T12:46:52;99269.63;;;40.19;33.75
16664;BME280;8445;51.270;9.434;2023-06-22T12:49:18;99269.91;;;40.40;32.91
16664;BME280;8445;51.270;9.434;2023-06-22T12:51:44;99265.50;;;40.30;33.76
16664;BME280;8445;51.270;9.434;2023-06-22T12:54:10;99262.88;;;40.34;33.68
16664;BME280;8445;51.270;9.434;2023-06-22T12:56:37;99259.72;;;39.72;33.50
16664;BME280;8445;51.270;9.434;2023-06-22T12:59:03;99260.97;;;38.93;34.29
16664;BME280;8445;51.270;9.434;2023-06-22T13:01:29;99249.75;;;39.26;33.91
16664;BME280;8445;51.270;9.434;2023-06-22T13:03:56;99241.09;;;39.64;34.47
16664;BME280;8445;51.270;9.434;2023-06-22T13:06:22;99236.00;;;39.35;34.10
16664;BME280;8445;51.270;9.434;2023-06-22T13:08:50;99224.59;;;39.13;32.91
16664;BME280;8445;51.270;9.434;2023-06-22T13:11:16;99219.56;;;39.16;33.97
16664;BME280;8445;51.270;9.434;2023-06-22T13:13:41;99208.50;;;39.16;33.12